createdAt,value
2022-10-19T00:01:17.144Z,31.85
2022-10-19T00:03:45.118Z,31.27
2022-10-19T00:06:16.780Z,29.98
2022-10-19T00:08:47.226Z,31.55
2022-10-19T00:11:14.383Z,30.83
2022-10-19T00:13:41.583Z,30.60
2022-10-19T00:16:11.428Z,29.08
2022-10-19T00:18:39.449Z,32.90
2022-10-19T00:21:07.277Z,27.20
2022-10-19T00:23:34.775Z,29.00
2022-10-19T00:26:01.926Z,29.73
2022-10-19T00:28:29.114Z,29.20
2022-10-19T00:30:56.301Z,28.73
2022-10-19T00:33:23.499Z,29.20
2022-10-19T00:35:51.670Z,26.50
2022-10-19T00:38:22.363Z,30.63
2022-10-19T00:40:50.147Z,27.02
2022-10-19T00:43:18.321Z,27.85
2022-10-19T00:45:45.457Z,28.73
2022-10-19T00:48:13.949Z,28.85
2022-10-19T00:50:41.466Z,28.63
2022-10-19T00:53:08.786Z,27.45
2022-10-19T00:55:35.957Z,27.70
2022-10-19T00:58:03.500Z,28.30
2022-10-19T01:00:31.065Z,27.55
2022-10-19T01:02:58.970Z,26.63
2022-10-19T01:05:26.837Z,25.55
2022-10-19T01:07:54.518Z,26.58
2022-10-19T01:10:23.301Z,25.10
2022-10-19T01:13:01.399Z,23.65
2022-10-19T01:15:34.376Z,23.40
2022-10-19T01:18:07.589Z,24.98
2022-10-19T01:20:44.104Z,25.42
2022-10-19T01:23:14.108Z,24.27
2022-10-19T01:25:47.462Z,25.58
2022-10-19T01:28:33.032Z,28.15
2022-10-19T01:31:26.735Z,24.83
2022-10-19T01:34:12.331Z,24.55
2022-10-19T01:36:42.809Z,25.42
2022-10-19T01:39:12.934Z,26.33
2022-10-19T01:41:52.385Z,23.83
2022-10-19T01:44:51.853Z,24.08
2022-10-19T01:47:42.477Z,24.65
2022-10-19T01:50:15.833Z,23.33
2022-10-19T01:52:43.688Z,24.13
2022-10-19T01:55:12.413Z,24.30
2022-10-19T01:57:46.944Z,22.95
2022-10-19T02:00:15.535Z,22.33
2022-10-19T02:02:44.080Z,22.42
2022-10-19T02:05:12.393Z,23.42
2022-10-19T02:07:41.347Z,21.38
2022-10-19T02:10:08.879Z,21.80
2022-10-19T02:12:36.575Z,21.83
2022-10-19T02:15:09.881Z,22.08
2022-10-19T02:17:39.988Z,21.70
2022-10-19T02:20:07.604Z,21.52
2022-10-19T02:22:35.009Z,23.00
2022-10-19T02:25:03.422Z,22.00
2022-10-19T02:27:30.648Z,22.73
2022-10-19T02:29:57.816Z,21.67
2022-10-19T02:32:27.157Z,21.15
2022-10-19T02:34:54.321Z,20.38
2022-10-19T02:37:23.444Z,21.42
2022-10-19T02:39:52.725Z,20.63
2022-10-19T02:42:25.065Z,21.50
2022-10-19T02:44:57.045Z,20.13
2022-10-19T02:47:26.853Z,20.85
2022-10-19T02:49:54.566Z,20.55
2022-10-19T02:52:21.702Z,21.58
2022-10-19T02:54:50.377Z,20.85
2022-10-19T02:57:22.108Z,19.90
2022-10-19T02:59:49.833Z,21.02
2022-10-19T03:02:18.217Z,21.95
2022-10-19T03:07:18.993Z,19.60
2022-10-19T03:09:46.927Z,21.15
2022-10-19T03:12:14.482Z,20.48
2022-10-19T03:14:41.640Z,19.45
2022-10-19T03:17:08.988Z,20.17
2022-10-19T03:19:36.406Z,19.10
2022-10-19T03:22:04.118Z,18.52
2022-10-19T03:24:32.060Z,19.77
2022-10-19T03:26:59.255Z,18.20
2022-10-19T03:29:26.487Z,17.85
2022-10-19T03:31:53.608Z,18.95
2022-10-19T03:34:20.829Z,18.08
2022-10-19T03:36:48.023Z,19.38
2022-10-19T03:39:16.649Z,17.63
2022-10-19T03:41:44.023Z,18.58
2022-10-19T03:44:11.616Z,17.45
2022-10-19T03:46:38.735Z,18.10
2022-10-19T03:49:06.029Z,18.58
2022-10-19T03:51:33.784Z,19.25
2022-10-19T03:54:08.082Z,17.38
2022-10-19T03:56:35.673Z,18.05
2022-10-19T03:59:03.333Z,17.52
2022-10-19T04:01:31.815Z,17.30
2022-10-19T04:04:00.733Z,17.00
2022-10-19T04:06:32.149Z,17.50
2022-10-19T04:09:00.473Z,14.70
2022-10-19T04:11:29.818Z,16.48
2022-10-19T04:13:57.536Z,17.75
2022-10-19T04:16:25.463Z,17.17
2022-10-19T04:18:52.853Z,18.63
2022-10-19T04:21:24.394Z,16.88
2022-10-19T04:23:52.877Z,17.58
2022-10-19T04:26:20.174Z,17.58
2022-10-19T04:28:47.758Z,17.02
2022-10-19T04:31:14.972Z,16.25
2022-10-19T04:33:42.344Z,16.90
2022-10-19T04:36:10.468Z,16.88
2022-10-19T04:38:37.622Z,15.25
2022-10-19T04:41:09.165Z,16.40
2022-10-19T04:43:36.887Z,16.17
2022-10-19T04:46:05.304Z,15.85
2022-10-19T04:48:32.804Z,17.20
2022-10-19T04:50:59.973Z,15.70
2022-10-19T04:53:27.559Z,17.27
2022-10-19T04:55:54.803Z,15.77
2022-10-19T04:58:22.153Z,16.00
2022-10-19T05:00:50.049Z,17.20
2022-10-19T05:03:17.411Z,17.25
2022-10-19T05:05:44.605Z,18.15
2022-10-19T05:08:12.032Z,17.08
2022-10-19T05:10:41.194Z,15.68
2022-10-19T05:13:10.259Z,14.52
2022-10-19T05:15:37.403Z,16.55
2022-10-19T05:18:04.567Z,16.08
2022-10-19T05:20:34.519Z,17.27
2022-10-19T05:23:06.209Z,17.08
2022-10-19T05:25:34.589Z,16.20
2022-10-19T05:28:01.737Z,17.77
2022-10-19T05:30:28.929Z,20.48
2022-10-19T05:32:56.105Z,15.57
2022-10-19T05:35:23.280Z,20.17
2022-10-19T05:37:54.572Z,17.50
2022-10-19T05:40:21.809Z,20.83
2022-10-19T05:42:48.979Z,21.08
2022-10-19T05:45:16.157Z,19.15
2022-10-19T05:47:43.352Z,18.60
2022-10-19T05:50:10.479Z,22.90
2022-10-19T05:52:37.637Z,16.80
2022-10-19T05:55:04.923Z,21.60
2022-10-19T05:57:35.525Z,16.38
2022-10-19T06:00:04.549Z,17.08
2022-10-19T06:02:32.069Z,16.85
2022-10-19T06:04:59.246Z,24.25
2022-10-19T06:07:26.440Z,18.33
2022-10-19T06:09:53.625Z,15.00
2022-10-19T06:12:24.279Z,16.90
2022-10-19T06:14:52.510Z,16.70
2022-10-19T06:17:19.636Z,17.52
2022-10-19T06:19:47.592Z,18.75
2022-10-19T06:22:14.749Z,22.17
2022-10-19T06:24:41.913Z,17.88
2022-10-19T06:27:09.174Z,21.48
2022-10-19T06:29:36.456Z,16.08
2022-10-19T06:32:03.620Z,18.20
2022-10-19T06:34:30.804Z,15.57
2022-10-19T06:36:58.025Z,16.23
2022-10-19T06:39:25.151Z,22.10
2022-10-19T06:41:52.255Z,17.58
2022-10-19T06:44:19.659Z,17.85
2022-10-19T06:46:46.812Z,19.13
2022-10-19T06:49:14.800Z,16.98
2022-10-19T06:51:41.986Z,16.38
2022-10-19T06:54:09.153Z,14.35
2022-10-19T06:56:36.391Z,15.93
2022-10-19T06:59:03.705Z,16.50
2022-10-19T07:01:30.943Z,20.77
2022-10-19T07:03:58.168Z,16.23
2022-10-19T07:06:27.794Z,14.95
2022-10-19T07:08:55.056Z,19.55
2022-10-19T07:11:22.779Z,14.70
2022-10-19T07:13:50.058Z,14.93
2022-10-19T07:16:21.328Z,23.00
2022-10-19T07:18:49.679Z,17.02
2022-10-19T07:21:17.005Z,17.88
2022-10-19T07:23:45.471Z,16.65
2022-10-19T07:26:14.174Z,17.70
2022-10-19T07:28:42.316Z,17.15
2022-10-19T07:31:10.936Z,17.58
2022-10-19T07:33:38.142Z,15.18
2022-10-19T07:36:07.103Z,13.68
2022-10-19T07:38:34.779Z,13.43
2022-10-19T07:41:06.441Z,12.95
2022-10-19T07:43:34.061Z,14.65
2022-10-19T07:46:08.559Z,14.00
2022-10-19T07:48:37.112Z,13.75
2022-10-19T07:51:05.733Z,13.77
2022-10-19T07:53:33.315Z,15.10
2022-10-19T07:56:11.059Z,16.48
2022-10-19T07:58:38.346Z,14.38
2022-10-19T08:01:07.202Z,14.98
2022-10-19T08:06:22.389Z,15.70
2022-10-19T08:08:50.765Z,13.13
2022-10-19T08:11:23.235Z,13.75
2022-10-19T08:13:50.596Z,15.45
2022-10-19T08:16:22.637Z,14.75
2022-10-19T08:18:49.978Z,13.93
2022-10-19T08:21:17.150Z,13.43
2022-10-19T08:23:44.378Z,15.95
2022-10-19T08:26:11.611Z,19.70
2022-10-19T08:28:38.749Z,14.45
2022-10-19T08:31:13.291Z,12.60
2022-10-19T08:33:40.565Z,14.43
2022-10-19T08:36:08.554Z,13.48
2022-10-19T08:38:36.337Z,13.23
2022-10-19T08:41:21.879Z,12.65
2022-10-19T08:43:59.885Z,13.25
2022-10-19T08:46:35.821Z,13.00
2022-10-19T08:49:03.269Z,12.68
2022-10-19T08:51:36.574Z,13.45
2022-10-19T08:54:04.857Z,12.77
2022-10-19T08:56:51.300Z,13.85
2022-10-19T08:59:37.276Z,15.25
2022-10-19T09:02:16.761Z,13.02
2022-10-19T09:04:49.447Z,15.35
2022-10-19T09:07:19.600Z,13.52
2022-10-19T09:09:57.394Z,15.18
2022-10-19T09:12:44.872Z,12.32
2022-10-19T09:15:13.742Z,12.23
2022-10-19T09:17:41.106Z,12.95
2022-10-19T09:20:15.249Z,13.52
2022-10-19T09:22:43.747Z,14.38
2022-10-19T09:25:21.108Z,13.57
2022-10-19T09:27:49.587Z,12.57
2022-10-19T09:30:16.804Z,13.70
2022-10-19T09:32:43.957Z,13.20
2022-10-19T09:35:29.328Z,13.07
2022-10-19T09:37:59.858Z,12.05
2022-10-19T09:40:28.760Z,13.35
2022-10-19T09:43:03.085Z,13.15
2022-10-19T09:45:48.600Z,12.68
2022-10-19T09:48:18.590Z,12.82
2022-10-19T09:50:46.504Z,13.00
2022-10-19T09:53:19.283Z,12.68
2022-10-19T09:58:16.280Z,13.05
2022-10-19T10:00:46.229Z,13.35
2022-10-19T10:03:32.065Z,13.90
2022-10-19T10:06:02.828Z,13.15
2022-10-19T10:08:35.227Z,12.07
2022-10-19T10:11:21.274Z,13.25
2022-10-19T10:13:53.096Z,12.77
2022-10-19T10:16:21.776Z,12.73
2022-10-19T10:18:59.625Z,13.05
2022-10-19T10:21:33.590Z,12.77
2022-10-19T10:24:00.754Z,13.45
2022-10-19T10:26:28.405Z,12.25
2022-10-19T10:28:57.921Z,13.73
2022-10-19T10:31:30.238Z,11.20
2022-10-19T10:34:10.832Z,13.00
2022-10-19T10:36:54.593Z,12.93
2022-10-19T10:39:21.805Z,13.43
2022-10-19T10:41:49.526Z,12.50
2022-10-19T10:44:18.965Z,13.18
2022-10-19T10:46:53.304Z,12.70
2022-10-19T10:49:30.787Z,14.50
2022-10-19T10:51:59.207Z,12.52
2022-10-19T10:54:27.709Z,11.93
2022-10-19T10:56:58.781Z,13.20
2022-10-19T10:59:31.308Z,13.40
2022-10-19T11:02:04.515Z,12.73
2022-10-19T11:04:38.098Z,12.70
2022-10-19T11:07:19.266Z,13.60
2022-10-19T11:09:58.853Z,13.57
2022-10-19T11:12:37.893Z,12.30
2022-10-19T11:15:12.167Z,14.52
2022-10-19T11:17:41.758Z,14.05
2022-10-19T11:20:15.939Z,13.60
2022-10-19T11:23:09.552Z,13.35
2022-10-19T11:25:44.596Z,14.32
2022-10-19T11:28:11.733Z,13.23
2022-10-19T11:30:50.533Z,15.38
2022-10-19T11:33:29.871Z,17.67
2022-10-19T11:35:59.033Z,14.23
2022-10-19T11:38:35.912Z,15.10
2022-10-19T11:41:22.087Z,13.57
2022-10-19T11:46:35.178Z,14.63
2022-10-19T11:49:17.750Z,19.73
2022-10-19T11:52:02.567Z,45.15
2022-10-19T11:54:48.646Z,54.35
2022-10-19T11:57:26.872Z,44.17
2022-10-19T12:00:14.601Z,34.35
2022-10-19T12:02:45.548Z,40.95
2022-10-19T12:05:12.727Z,33.33
2022-10-19T12:07:45.429Z,38.95
2022-10-19T12:10:18.863Z,44.90
2022-10-19T12:12:49.193Z,48.72
2022-10-19T12:15:23.642Z,42.90
2022-10-19T12:17:52.801Z,42.45
2022-10-19T12:20:20.115Z,44.78
2022-10-19T12:22:48.956Z,43.05
2022-10-19T12:25:17.137Z,42.80
2022-10-19T12:27:47.604Z,39.97
2022-10-19T12:30:16.200Z,49.25
2022-10-19T12:32:52.066Z,39.85
2022-10-19T12:35:47.457Z,35.35
2022-10-19T12:38:24.162Z,37.78
2022-10-19T12:40:59.476Z,35.42
2022-10-19T12:43:34.191Z,35.85
2022-10-19T12:46:11.756Z,38.33
2022-10-19T12:48:39.302Z,33.78
2022-10-19T12:51:08.909Z,36.33
2022-10-19T12:53:40.857Z,33.08
2022-10-19T12:56:28.259Z,33.45
2022-10-19T12:59:01.373Z,30.02
2022-10-19T13:01:48.906Z,29.95
2022-10-19T13:04:21.301Z,30.52
2022-10-19T13:06:49.721Z,31.15
2022-10-19T13:09:37.084Z,32.00
2022-10-19T13:12:21.286Z,30.80
2022-10-19T13:15:04.811Z,29.23
2022-10-19T13:17:36.496Z,30.38
2022-10-19T13:20:16.325Z,34.10
2022-10-19T13:22:51.028Z,34.97
2022-10-19T13:25:18.837Z,28.13
2022-10-19T13:27:49.608Z,30.45
2022-10-19T13:30:49.305Z,30.95
2022-10-19T13:33:29.044Z,32.15
2022-10-19T13:35:59.313Z,33.67
2022-10-19T13:38:29.321Z,33.55
2022-10-19T13:40:56.486Z,38.35
2022-10-19T13:43:25.818Z,24.45
2022-10-19T13:46:13.762Z,28.25
2022-10-19T13:48:59.859Z,28.30
2022-10-19T13:51:45.468Z,27.17
2022-10-19T13:54:27.284Z,28.35
2022-10-19T13:57:13.102Z,31.83
2022-10-19T13:59:53.802Z,28.45
2022-10-19T14:02:39.559Z,31.88
2022-10-19T14:05:25.674Z,27.63
2022-10-19T14:08:04.764Z,27.95
2022-10-19T14:10:33.150Z,24.95
2022-10-19T14:13:14.528Z,23.33
2022-10-19T14:15:50.233Z,27.52
2022-10-19T14:20:56.412Z,27.65
2022-10-19T14:23:25.329Z,26.58
2022-10-19T14:26:15.939Z,28.75
2022-10-19T14:28:43.404Z,31.58
2022-10-19T14:31:11.648Z,27.88
2022-10-19T14:33:42.510Z,32.58
2022-10-19T14:36:15.431Z,31.27
2022-10-19T14:38:43.580Z,27.73
2022-10-19T14:41:28.903Z,26.30
2022-10-19T14:44:00.091Z,29.90
2022-10-19T14:46:29.568Z,24.75
2022-10-19T14:49:01.038Z,24.50
2022-10-19T14:51:31.145Z,27.60
2022-10-19T14:54:04.176Z,28.60
2022-10-19T14:56:31.343Z,28.50
2022-10-19T14:59:03.862Z,23.38
2022-10-19T15:01:31.278Z,25.30
2022-10-19T15:03:58.564Z,30.67
2022-10-19T15:06:27.812Z,29.40
2022-10-19T15:09:09.364Z,24.85
2022-10-19T15:11:46.672Z,23.85
2022-10-19T15:14:15.211Z,22.30
2022-10-19T15:16:45.452Z,21.45
2022-10-19T15:19:17.964Z,19.85
2022-10-19T15:21:45.542Z,21.02
2022-10-19T15:24:25.365Z,23.73
2022-10-19T15:27:06.437Z,20.75
2022-10-19T15:29:34.010Z,19.95
2022-10-19T15:32:15.064Z,22.50
2022-10-19T15:34:43.210Z,21.98
2022-10-19T15:37:16.330Z,26.05
2022-10-19T15:39:45.692Z,23.90
2022-10-19T15:42:34.473Z,19.38
2022-10-19T15:45:02.107Z,22.65
2022-10-19T15:47:30.299Z,25.98
2022-10-19T15:49:58.763Z,19.05
2022-10-19T15:52:26.988Z,26.23
2022-10-19T15:54:55.468Z,24.30
2022-10-19T15:57:36.444Z,24.35
2022-10-19T16:00:22.048Z,23.58
2022-10-19T16:02:49.285Z,22.63
2022-10-19T16:05:16.484Z,23.02
2022-10-19T16:07:43.644Z,21.38
2022-10-19T16:10:29.036Z,21.08
2022-10-19T16:12:56.223Z,21.95
2022-10-19T16:15:24.045Z,19.10
2022-10-19T16:17:55.347Z,20.88
2022-10-19T16:20:23.368Z,20.02
2022-10-19T16:22:50.943Z,24.92
2022-10-19T16:25:18.504Z,22.25
2022-10-19T16:27:45.724Z,20.15
2022-10-19T16:30:13.544Z,17.67
2022-10-19T16:35:12.810Z,20.95
2022-10-19T16:37:39.952Z,19.30
2022-10-19T16:40:07.420Z,20.70
2022-10-19T16:42:34.957Z,19.88
2022-10-19T16:45:02.532Z,17.23
2022-10-19T16:47:29.750Z,20.45
2022-10-19T16:50:01.144Z,17.45
2022-10-19T16:52:29.326Z,16.55
2022-10-19T16:54:57.441Z,20.25
2022-10-19T16:57:24.593Z,19.25
2022-10-19T17:02:21.687Z,20.95
2022-10-19T17:04:51.903Z,16.40
2022-10-19T17:07:19.096Z,17.80
2022-10-19T17:09:47.853Z,18.67
2022-10-19T17:12:17.005Z,15.68
2022-10-19T17:14:44.153Z,16.13
2022-10-19T17:17:11.969Z,16.42
2022-10-19T17:19:39.151Z,17.92
2022-10-19T17:22:06.358Z,15.73
2022-10-19T17:24:33.513Z,14.50
2022-10-19T17:27:02.901Z,17.63
2022-10-19T17:29:30.142Z,15.38
2022-10-19T17:31:57.747Z,18.42
2022-10-19T17:34:24.937Z,14.68
2022-10-19T17:36:52.207Z,16.95
2022-10-19T17:39:25.566Z,18.63
2022-10-19T17:41:57.524Z,15.65
2022-10-19T17:44:24.676Z,14.55
2022-10-19T17:46:52.001Z,15.57
2022-10-19T17:49:19.237Z,15.75
2022-10-19T17:51:46.393Z,15.35
2022-10-19T17:54:14.428Z,14.40
2022-10-19T17:56:44.812Z,13.75
2022-10-19T17:59:12.204Z,14.70
2022-10-19T18:01:39.405Z,14.57
2022-10-19T18:04:06.972Z,14.70
2022-10-19T18:06:35.494Z,15.32
2022-10-19T18:09:04.008Z,13.80
2022-10-19T18:11:32.320Z,15.23
2022-10-19T18:14:00.356Z,14.25
2022-10-19T18:16:32.212Z,15.30
2022-10-19T18:19:00.474Z,13.57
2022-10-19T18:21:30.560Z,14.10
2022-10-19T18:23:59.429Z,14.10
2022-10-19T18:26:28.604Z,16.33
2022-10-19T18:28:56.454Z,12.90
2022-10-19T18:31:25.080Z,13.27
2022-10-19T18:33:56.485Z,15.02
2022-10-19T18:36:23.685Z,13.38
2022-10-19T18:38:54.821Z,13.23
2022-10-19T18:41:22.487Z,13.18
2022-10-19T18:43:56.729Z,14.32
2022-10-19T18:46:25.173Z,14.27
2022-10-19T18:48:53.544Z,12.15
2022-10-19T18:51:21.291Z,13.32
2022-10-19T18:53:48.775Z,12.50
2022-10-19T18:56:17.063Z,13.10
2022-10-19T18:58:44.802Z,12.73
2022-10-19T19:01:16.372Z,12.95
2022-10-19T19:03:44.713Z,11.88
2022-10-19T19:06:15.979Z,12.85
2022-10-19T19:11:20.654Z,17.75
2022-10-19T19:13:55.362Z,15.18
2022-10-19T19:16:22.844Z,15.48
2022-10-19T19:18:50.070Z,12.35
2022-10-19T19:21:17.360Z,22.02
2022-10-19T19:23:44.797Z,14.30
2022-10-19T19:26:13.034Z,13.20
2022-10-19T19:28:41.908Z,13.27
2022-10-19T19:31:11.475Z,11.00
2022-10-19T19:33:39.539Z,17.13
2022-10-19T19:36:07.944Z,12.73
2022-10-19T19:38:35.739Z,12.90
2022-10-19T19:41:06.847Z,12.18
2022-10-19T19:43:34.975Z,10.23
2022-10-19T19:46:06.274Z,12.90
2022-10-19T19:48:36.696Z,13.38
2022-10-19T19:51:03.849Z,12.02
2022-10-19T19:53:31.092Z,14.40
2022-10-19T19:55:58.303Z,13.55
2022-10-19T19:58:25.456Z,13.30
2022-10-19T20:00:52.618Z,11.05
2022-10-19T20:03:19.970Z,22.20
2022-10-19T20:05:47.132Z,15.13
2022-10-19T20:08:14.262Z,18.65
2022-10-19T20:10:42.160Z,13.85
2022-10-19T20:13:09.528Z,11.65
2022-10-19T20:15:39.897Z,15.25
2022-10-19T20:18:07.574Z,13.00
2022-10-19T20:20:34.720Z,13.55
2022-10-19T20:23:01.837Z,12.05
2022-10-19T20:25:28.975Z,19.02
2022-10-19T20:27:56.128Z,12.35
2022-10-19T20:30:23.312Z,12.38
2022-10-19T20:32:54.016Z,12.98
2022-10-19T20:35:21.148Z,16.98
2022-10-19T20:37:51.488Z,18.55
2022-10-19T20:40:19.227Z,16.25
2022-10-19T20:42:47.675Z,13.85
2022-10-19T20:45:15.024Z,17.88
2022-10-19T20:47:42.207Z,11.27
2022-10-19T20:50:09.621Z,16.10
2022-10-19T20:52:38.460Z,17.27
2022-10-19T20:55:06.662Z,14.85
2022-10-19T20:57:33.823Z,15.88
2022-10-19T21:00:00.980Z,12.73
2022-10-19T21:02:28.203Z,14.10
2022-10-19T21:04:55.395Z,10.50
2022-10-19T21:07:22.538Z,12.73
2022-10-19T21:09:49.725Z,15.07
2022-10-19T21:12:16.935Z,11.82
2022-10-19T21:14:44.105Z,12.55
2022-10-19T21:17:11.281Z,13.60
2022-10-19T21:19:38.434Z,16.20
2022-10-19T21:22:06.331Z,10.85
2022-10-19T21:24:35.086Z,13.35
2022-10-19T21:27:03.815Z,12.80
2022-10-19T21:29:31.004Z,10.90
2022-10-19T21:31:58.174Z,13.70
2022-10-19T21:34:26.525Z,12.25
2022-10-19T21:36:54.061Z,11.45
2022-10-19T21:39:21.198Z,11.77
2022-10-19T21:41:48.585Z,15.43
2022-10-19T21:44:16.542Z,11.32
2022-10-19T21:46:43.925Z,20.15
2022-10-19T21:49:14.993Z,12.43
2022-10-19T21:51:47.078Z,9.77
2022-10-19T21:54:16.195Z,14.20
2022-10-19T21:56:43.803Z,16.65
2022-10-19T21:59:12.081Z,17.30
2022-10-19T22:01:41.192Z,15.43
2022-10-19T22:04:09.892Z,15.02
2022-10-19T22:06:37.258Z,16.63
2022-10-19T22:09:06.042Z,14.63
2022-10-19T22:11:33.629Z,13.02
2022-10-19T22:14:01.875Z,14.45
2022-10-19T22:16:29.873Z,15.27
2022-10-19T22:18:57.519Z,9.90
2022-10-19T22:21:26.001Z,13.60
2022-10-19T22:23:54.435Z,11.55
2022-10-19T22:26:28.761Z,11.40
2022-10-19T22:28:56.895Z,11.82
2022-10-19T22:31:24.452Z,14.13
2022-10-19T22:33:51.566Z,15.05
2022-10-19T22:36:18.989Z,11.00
2022-10-19T22:38:46.608Z,12.30
2022-10-19T22:41:16.519Z,11.82
2022-10-19T22:44:21.506Z,9.93
2022-10-19T22:47:26.552Z,9.90
2022-10-19T22:50:31.017Z,11.20
2022-10-19T22:52:58.311Z,12.75
2022-10-19T22:55:25.495Z,10.50
2022-10-19T22:57:52.609Z,11.23
2022-10-19T23:00:19.885Z,16.27
2022-10-19T23:02:47.010Z,12.27
2022-10-19T23:05:14.298Z,11.68
2022-10-19T23:07:41.391Z,11.18
2022-10-19T23:10:09.058Z,12.73
2022-10-19T23:12:36.238Z,12.63
2022-10-19T23:15:03.388Z,11.48
2022-10-19T23:17:30.523Z,13.75
2022-10-19T23:19:57.708Z,10.13
2022-10-19T23:22:24.878Z,10.57
2022-10-19T23:24:51.996Z,13.05
2022-10-19T23:27:20.467Z,9.30
2022-10-19T23:29:48.010Z,10.70
2022-10-19T23:32:15.216Z,10.80
2022-10-19T23:34:44.570Z,8.27
2022-10-19T23:37:14.616Z,8.88
2022-10-19T23:39:41.745Z,8.70
2022-10-19T23:42:08.940Z,9.02
2022-10-19T23:44:36.159Z,8.57
2022-10-19T23:47:03.283Z,10.73
2022-10-19T23:49:30.449Z,9.13
2022-10-19T23:51:57.566Z,11.63
2022-10-19T23:54:24.779Z,10.52
2022-10-19T23:56:51.916Z,11.38
2022-10-19T23:59:19.068Z,8.02
